sensor_id;sensor_type;location;lat;lon;timestamp;temperature;humidity
20171;DHT22;10245;51.344;6.620;2022-12-08T00:02:09;4.00;91.10
20171;DHT22;10245;51.344;6.620;2022-12-08T00:04:34;4.00;91.10
20171;DHT22;10245;51.344;6.620;2022-12-08T00:07:18;4.00;91.00
20171;DHT22;10245;51.344;6.620;2022-12-08T00:10:05;4.00;91.10
20171;DHT22;10245;51.344;6.620;2022-12-08T00:12:49;4.00;91.10
20171;DHT22;10245;51.344;6.620;2022-12-08T00:15:13;4.00;91.00
20171;DHT22;10245;51.344;6.620;2022-12-08T00:17:38;4.00;91.20
20171;DHT22;10245;51.344;6.620;2022-12-08T00:20:01;4.00;91.20
20171;DHT22;10245;51.344;6.620;2022-12-08T00:22:25;4.00;91.20
20171;DHT22;10245;51.344;6.620;2022-12-08T00:24:49;4.00;91.10
20171;DHT22;10245;51.344;6.620;2022-12-08T00:27:15;4.00;91.30
20171;DHT22;10245;51.344;6.620;2022-12-08T00:29:39;4.00;91.40
20171;DHT22;10245;51.344;6.620;2022-12-08T00:32:02;3.90;91.50
20171;DHT22;10245;51.344;6.620;2022-12-08T00:34:29;3.90;91.50
20171;DHT22;10245;51.344;6.620;2022-12-08T00:36:52;3.90;91.50
20171;DHT22;10245;51.344;6.620;2022-12-08T00:39:16;3.90;91.60
20171;DHT22;10245;51.344;6.620;2022-12-08T00:41:40;3.90;91.50
20171;DHT22;10245;51.344;6.620;2022-12-08T00:44:21;3.90;91.50
20171;DHT22;10245;51.344;6.620;2022-12-08T00:46:45;3.90;91.60
20171;DHT22;10245;51.344;6.620;2022-12-08T00:49:09;3.80;91.60
20171;DHT22;10245;51.344;6.620;2022-12-08T00:51:34;3.90;91.80
20171;DHT22;10245;51.344;6.620;2022-12-08T00:53:58;3.80;91.70
20171;DHT22;10245;51.344;6.620;2022-12-08T00:56:21;3.70;91.80
20171;DHT22;10245;51.344;6.620;2022-12-08T00:58:45;3.80;92.00
20171;DHT22;10245;51.344;6.620;2022-12-08T01:01:09;3.80;91.70
20171;DHT22;10245;51.344;6.620;2022-12-08T01:03:33;3.80;91.80
20171;DHT22;10245;51.344;6.620;2022-12-08T01:06:01;3.90;91.90
20171;DHT22;10245;51.344;6.620;2022-12-08T01:08:26;3.80;91.80
20171;DHT22;10245;51.344;6.620;2022-12-08T01:10:49;3.80;91.80
20171;DHT22;10245;51.344;6.620;2022-12-08T01:13:13;3.90;91.70
20171;DHT22;10245;51.344;6.620;2022-12-08T01:15:36;3.90;91.70
20171;DHT22;10245;51.344;6.620;2022-12-08T01:18:00;3.90;91.70
20171;DHT22;10245;51.344;6.620;2022-12-08T01:20:23;3.90;91.70
20171;DHT22;10245;51.344;6.620;2022-12-08T01:22:47;3.90;91.70
20171;DHT22;10245;51.344;6.620;2022-12-08T01:25:11;4.00;91.70
20171;DHT22;10245;51.344;6.620;2022-12-08T01:27:35;3.90;91.90
20171;DHT22;10245;51.344;6.620;2022-12-08T01:29:58;4.00;91.70
20171;DHT22;10245;51.344;6.620;2022-12-08T01:32:23;4.00;91.80
20171;DHT22;10245;51.344;6.620;2022-12-08T01:34:46;4.00;91.80
20171;DHT22;10245;51.344;6.620;2022-12-08T01:37:09;4.00;91.90
20171;DHT22;10245;51.344;6.620;2022-12-08T01:39:34;3.90;91.80
20171;DHT22;10245;51.344;6.620;2022-12-08T01:41:58;4.00;91.90
20171;DHT22;10245;51.344;6.620;2022-12-08T01:44:54;4.00;91.90
20171;DHT22;10245;51.344;6.620;2022-12-08T01:47:20;4.00;91.90
20171;DHT22;10245;51.344;6.620;2022-12-08T01:49:45;4.00;91.80
20171;DHT22;10245;51.344;6.620;2022-12-08T01:52:14;4.00;91.80
20171;DHT22;10245;51.344;6.620;2022-12-08T01:54:43;4.00;91.70
20171;DHT22;10245;51.344;6.620;2022-12-08T01:57:13;4.00;91.80
20171;DHT22;10245;51.344;6.620;2022-12-08T01:59:49;4.00;91.70
20171;DHT22;10245;51.344;6.620;2022-12-08T02:02:16;4.00;91.60
20171;DHT22;10245;51.344;6.620;2022-12-08T02:04:39;4.00;91.70
20171;DHT22;10245;51.344;6.620;2022-12-08T02:07:03;4.00;91.80
20171;DHT22;10245;51.344;6.620;2022-12-08T02:09:29;4.00;91.80
20171;DHT22;10245;51.344;6.620;2022-12-08T02:11:53;4.10;91.80
20171;DHT22;10245;51.344;6.620;2022-12-08T02:14:19;4.10;91.70
20171;DHT22;10245;51.344;6.620;2022-12-08T02:16:48;4.10;91.50
20171;DHT22;10245;51.344;6.620;2022-12-08T02:19:43;4.00;91.60
20171;DHT22;10245;51.344;6.620;2022-12-08T02:22:30;4.10;91.50
20171;DHT22;10245;51.344;6.620;2022-12-08T02:25:05;4.10;91.30
20171;DHT22;10245;51.344;6.620;2022-12-08T02:27:36;4.10;91.30
20171;DHT22;10245;51.344;6.620;2022-12-08T02:30:21;4.10;91.20
20171;DHT22;10245;51.344;6.620;2022-12-08T02:33:10;4.10;91.40
20171;DHT22;10245;51.344;6.620;2022-12-08T02:35:55;4.10;91.50
20171;DHT22;10245;51.344;6.620;2022-12-08T02:38:28;4.10;91.20
20171;DHT22;10245;51.344;6.620;2022-12-08T02:41:09;4.10;91.10
20171;DHT22;10245;51.344;6.620;2022-12-08T02:43:41;4.10;91.10
20171;DHT22;10245;51.344;6.620;2022-12-08T02:46:09;4.10;90.50
20171;DHT22;10245;51.344;6.620;2022-12-08T02:48:34;4.10;90.10
20171;DHT22;10245;51.344;6.620;2022-12-08T02:50:59;4.10;90.10
20171;DHT22;10245;51.344;6.620;2022-12-08T02:53:23;4.10;90.30
20171;DHT22;10245;51.344;6.620;2022-12-08T02:55:55;4.20;90.30
20171;DHT22;10245;51.344;6.620;2022-12-08T02:58:45;4.20;90.40
20171;DHT22;10245;51.344;6.620;2022-12-08T03:01:39;4.20;90.50
20171;DHT22;10245;51.344;6.620;2022-12-08T03:04:19;4.10;90.50
20171;DHT22;10245;51.344;6.620;2022-12-08T03:06:50;4.20;90.90
20171;DHT22;10245;51.344;6.620;2022-12-08T03:09:26;4.10;91.00
20171;DHT22;10245;51.344;6.620;2022-12-08T03:11:56;4.10;90.90
20171;DHT22;10245;51.344;6.620;2022-12-08T03:14:26;4.10;91.00
20171;DHT22;10245;51.344;6.620;2022-12-08T03:16:54;4.10;90.70
20171;DHT22;10245;51.344;6.620;2022-12-08T03:19:23;4.10;90.70
20171;DHT22;10245;51.344;6.620;2022-12-08T03:21:52;4.10;90.70
20171;DHT22;10245;51.344;6.620;2022-12-08T03:24:22;4.10;90.80
20171;DHT22;10245;51.344;6.620;2022-12-08T03:26:47;4.10;90.80
20171;DHT22;10245;51.344;6.620;2022-12-08T03:29:13;4.10;90.50
20171;DHT22;10245;51.344;6.620;2022-12-08T03:31:39;4.10;90.70
20171;DHT22;10245;51.344;6.620;2022-12-08T03:34:04;4.10;90.30
20171;DHT22;10245;51.344;6.620;2022-12-08T03:36:28;4.10;90.40
20171;DHT22;10245;51.344;6.620;2022-12-08T03:38:53;4.10;90.50
20171;DHT22;10245;51.344;6.620;2022-12-08T03:41:16;4.10;90.20
20171;DHT22;10245;51.344;6.620;2022-12-08T03:43:40;4.10;90.40
20171;DHT22;10245;51.344;6.620;2022-12-08T03:46:03;4.10;90.40
20171;DHT22;10245;51.344;6.620;2022-12-08T03:48:27;4.20;90.30
20171;DHT22;10245;51.344;6.620;2022-12-08T03:50:50;4.10;90.00
20171;DHT22;10245;51.344;6.620;2022-12-08T03:53:14;4.10;90.20
20171;DHT22;10245;51.344;6.620;2022-12-08T03:55:38;4.10;90.10
20171;DHT22;10245;51.344;6.620;2022-12-08T03:58:02;4.20;90.00
20171;DHT22;10245;51.344;6.620;2022-12-08T04:00:25;4.20;89.90
20171;DHT22;10245;51.344;6.620;2022-12-08T04:02:48;4.20;90.00
20171;DHT22;10245;51.344;6.620;2022-12-08T04:05:12;4.20;90.10
20171;DHT22;10245;51.344;6.620;2022-12-08T04:07:35;4.20;90.10
20171;DHT22;10245;51.344;6.620;2022-12-08T04:09:58;4.20;90.20
20171;DHT22;10245;51.344;6.620;2022-12-08T04:12:24;4.20;90.30
20171;DHT22;10245;51.344;6.620;2022-12-08T04:14:47;4.20;90.30
20171;DHT22;10245;51.344;6.620;2022-12-08T04:17:10;4.20;90.50
20171;DHT22;10245;51.344;6.620;2022-12-08T04:19:34;4.20;90.50
20171;DHT22;10245;51.344;6.620;2022-12-08T04:21:57;4.20;90.80
20171;DHT22;10245;51.344;6.620;2022-12-08T04:24:20;4.10;90.90
20171;DHT22;10245;51.344;6.620;2022-12-08T04:26:44;4.10;91.20
20171;DHT22;10245;51.344;6.620;2022-12-08T04:29:09;4.20;91.10
20171;DHT22;10245;51.344;6.620;2022-12-08T04:31:32;4.20;91.10
20171;DHT22;10245;51.344;6.620;2022-12-08T04:33:55;4.20;91.00
20171;DHT22;10245;51.344;6.620;2022-12-08T04:36:19;4.20;91.10
20171;DHT22;10245;51.344;6.620;2022-12-08T04:38:42;4.20;91.30
20171;DHT22;10245;51.344;6.620;2022-12-08T04:41:05;4.20;91.10
20171;DHT22;10245;51.344;6.620;2022-12-08T04:43:29;4.20;91.10
20171;DHT22;10245;51.344;6.620;2022-12-08T04:45:53;4.20;91.20
20171;DHT22;10245;51.344;6.620;2022-12-08T04:48:17;4.20;91.50
20171;DHT22;10245;51.344;6.620;2022-12-08T04:50:42;4.20;91.20
20171;DHT22;10245;51.344;6.620;2022-12-08T04:53:07;4.20;91.20
20171;DHT22;10245;51.344;6.620;2022-12-08T04:55:30;4.20;91.10
20171;DHT22;10245;51.344;6.620;2022-12-08T04:57:54;4.20;91.30
20171;DHT22;10245;51.344;6.620;2022-12-08T05:00:18;4.20;90.90
20171;DHT22;10245;51.344;6.620;2022-12-08T05:02:43;4.20;91.40
20171;DHT22;10245;51.344;6.620;2022-12-08T05:05:07;4.20;91.30
20171;DHT22;10245;51.344;6.620;2022-12-08T05:07:31;4.20;91.20
20171;DHT22;10245;51.344;6.620;2022-12-08T05:09:54;4.20;91.50
20171;DHT22;10245;51.344;6.620;2022-12-08T05:12:17;4.20;91.40
20171;DHT22;10245;51.344;6.620;2022-12-08T05:14:41;4.20;91.30
20171;DHT22;10245;51.344;6.620;2022-12-08T05:17:04;4.20;91.20
20171;DHT22;10245;51.344;6.620;2022-12-08T05:19:32;4.20;91.30
20171;DHT22;10245;51.344;6.620;2022-12-08T05:21:55;4.20;91.40
20171;DHT22;10245;51.344;6.620;2022-12-08T05:24:19;4.30;91.40
20171;DHT22;10245;51.344;6.620;2022-12-08T05:26:42;4.20;91.30
20171;DHT22;10245;51.344;6.620;2022-12-08T05:29:05;4.20;91.30
20171;DHT22;10245;51.344;6.620;2022-12-08T05:31:29;4.20;91.60
20171;DHT22;10245;51.344;6.620;2022-12-08T05:33:53;4.30;91.60
20171;DHT22;10245;51.344;6.620;2022-12-08T05:36:25;4.20;91.80
20171;DHT22;10245;51.344;6.620;2022-12-08T05:38:48;4.20;91.90
20171;DHT22;10245;51.344;6.620;2022-12-08T05:41:13;4.20;92.00
20171;DHT22;10245;51.344;6.620;2022-12-08T05:43:37;4.10;92.20
20171;DHT22;10245;51.344;6.620;2022-12-08T05:46:01;4.10;92.10
20171;DHT22;10245;51.344;6.620;2022-12-08T05:48:25;4.10;92.20
20171;DHT22;10245;51.344;6.620;2022-12-08T05:50:49;4.10;92.40
20171;DHT22;10245;51.344;6.620;2022-12-08T05:53:14;4.10;92.40
20171;DHT22;10245;51.344;6.620;2022-12-08T05:55:38;4.10;92.40
20171;DHT22;10245;51.344;6.620;2022-12-08T05:58:01;4.10;92.10
20171;DHT22;10245;51.344;6.620;2022-12-08T06:00:29;4.10;92.30
20171;DHT22;10245;51.344;6.620;2022-12-08T06:02:55;4.10;92.50
20171;DHT22;10245;51.344;6.620;2022-12-08T06:05:19;4.10;92.40
20171;DHT22;10245;51.344;6.620;2022-12-08T06:07:42;4.10;92.50
20171;DHT22;10245;51.344;6.620;2022-12-08T06:10:08;4.10;92.50
20171;DHT22;10245;51.344;6.620;2022-12-08T06:12:32;4.10;92.40
20171;DHT22;10245;51.344;6.620;2022-12-08T06:14:55;4.00;92.30
20171;DHT22;10245;51.344;6.620;2022-12-08T06:17:18;4.00;92.60
20171;DHT22;10245;51.344;6.620;2022-12-08T06:19:42;4.00;92.50
20171;DHT22;10245;51.344;6.620;2022-12-08T06:22:05;4.00;92.40
20171;DHT22;10245;51.344;6.620;2022-12-08T06:24:29;4.00;92.60
20171;DHT22;10245;51.344;6.620;2022-12-08T06:26:54;4.00;92.60
20171;DHT22;10245;51.344;6.620;2022-12-08T06:29:17;4.00;92.70
20171;DHT22;10245;51.344;6.620;2022-12-08T06:31:40;4.00;92.80
20171;DHT22;10245;51.344;6.620;2022-12-08T06:34:04;4.00;92.90
20171;DHT22;10245;51.344;6.620;2022-12-08T06:36:27;4.00;92.90
20171;DHT22;10245;51.344;6.620;2022-12-08T06:38:50;4.00;92.50
20171;DHT22;10245;51.344;6.620;2022-12-08T06:41:15;4.00;92.90
20171;DHT22;10245;51.344;6.620;2022-12-08T06:43:41;4.00;92.10
20171;DHT22;10245;51.344;6.620;2022-12-08T06:46:07;4.00;92.60
20171;DHT22;10245;51.344;6.620;2022-12-08T06:48:31;3.90;92.40
20171;DHT22;10245;51.344;6.620;2022-12-08T06:50:55;3.90;92.60
20171;DHT22;10245;51.344;6.620;2022-12-08T06:53:18;3.90;92.10
20171;DHT22;10245;51.344;6.620;2022-12-08T06:55:43;3.90;92.30
20171;DHT22;10245;51.344;6.620;2022-12-08T06:58:21;3.80;92.20
20171;DHT22;10245;51.344;6.620;2022-12-08T07:00:46;3.80;92.60
20171;DHT22;10245;51.344;6.620;2022-12-08T07:03:11;3.90;92.30
20171;DHT22;10245;51.344;6.620;2022-12-08T07:05:36;3.80;92.40
20171;DHT22;10245;51.344;6.620;2022-12-08T07:07:59;3.90;92.50
20171;DHT22;10245;51.344;6.620;2022-12-08T07:10:23;3.80;92.40
20171;DHT22;10245;51.344;6.620;2022-12-08T07:12:46;3.80;92.20
20171;DHT22;10245;51.344;6.620;2022-12-08T07:15:10;3.80;92.70
20171;DHT22;10245;51.344;6.620;2022-12-08T07:17:35;3.70;92.20
20171;DHT22;10245;51.344;6.620;2022-12-08T07:19:58;3.60;92.10
20171;DHT22;10245;51.344;6.620;2022-12-08T07:22:21;3.60;92.30
20171;DHT22;10245;51.344;6.620;2022-12-08T07:24:45;3.60;92.60
20171;DHT22;10245;51.344;6.620;2022-12-08T07:27:08;3.60;92.90
20171;DHT22;10245;51.344;6.620;2022-12-08T07:29:32;3.60;92.80
20171;DHT22;10245;51.344;6.620;2022-12-08T07:31:55;3.60;92.80
20171;DHT22;10245;51.344;6.620;2022-12-08T07:34:20;3.60;93.10
20171;DHT22;10245;51.344;6.620;2022-12-08T07:36:43;3.60;93.20
20171;DHT22;10245;51.344;6.620;2022-12-08T07:39:07;3.50;92.50
20171;DHT22;10245;51.344;6.620;2022-12-08T07:41:30;3.50;92.60
20171;DHT22;10245;51.344;6.620;2022-12-08T07:43:55;3.50;92.40
20171;DHT22;10245;51.344;6.620;2022-12-08T07:46:21;3.50;92.40
20171;DHT22;10245;51.344;6.620;2022-12-08T07:48:46;3.60;92.50
20171;DHT22;10245;51.344;6.620;2022-12-08T07:51:12;3.50;93.00
20171;DHT22;10245;51.344;6.620;2022-12-08T07:53:38;3.50;93.00
20171;DHT22;10245;51.344;6.620;2022-12-08T07:56:05;3.50;92.70
20171;DHT22;10245;51.344;6.620;2022-12-08T07:58:29;3.60;93.20
20171;DHT22;10245;51.344;6.620;2022-12-08T08:00:53;3.50;93.10
20171;DHT22;10245;51.344;6.620;2022-12-08T08:03:16;3.60;93.00
20171;DHT22;10245;51.344;6.620;2022-12-08T08:05:40;3.50;92.70
20171;DHT22;10245;51.344;6.620;2022-12-08T08:08:05;3.50;92.70
20171;DHT22;10245;51.344;6.620;2022-12-08T08:10:29;3.50;92.80
20171;DHT22;10245;51.344;6.620;2022-12-08T08:12:52;3.50;92.90
20171;DHT22;10245;51.344;6.620;2022-12-08T08:15:16;3.50;93.00
20171;DHT22;10245;51.344;6.620;2022-12-08T08:17:41;3.40;92.30
20171;DHT22;10245;51.344;6.620;2022-12-08T08:20:06;3.30;92.60
20171;DHT22;10245;51.344;6.620;2022-12-08T08:22:30;3.40;93.10
20171;DHT22;10245;51.344;6.620;2022-12-08T08:24:54;3.40;93.20
20171;DHT22;10245;51.344;6.620;2022-12-08T08:27:18;3.50;93.40
20171;DHT22;10245;51.344;6.620;2022-12-08T08:29:41;3.40;93.10
20171;DHT22;10245;51.344;6.620;2022-12-08T08:32:05;3.50;93.40
20171;DHT22;10245;51.344;6.620;2022-12-08T08:34:28;3.40;93.30
20171;DHT22;10245;51.344;6.620;2022-12-08T08:36:51;3.50;93.00
20171;DHT22;10245;51.344;6.620;2022-12-08T08:39:15;3.50;93.30
20171;DHT22;10245;51.344;6.620;2022-12-08T08:41:40;3.50;93.40
20171;DHT22;10245;51.344;6.620;2022-12-08T08:44:04;3.50;93.50
20171;DHT22;10245;51.344;6.620;2022-12-08T08:46:27;3.50;93.50
20171;DHT22;10245;51.344;6.620;2022-12-08T08:48:52;3.50;93.40
20171;DHT22;10245;51.344;6.620;2022-12-08T08:51:15;3.50;93.70
20171;DHT22;10245;51.344;6.620;2022-12-08T08:53:39;3.50;93.80
20171;DHT22;10245;51.344;6.620;2022-12-08T08:56:03;3.50;93.50
20171;DHT22;10245;51.344;6.620;2022-12-08T08:58:32;3.60;93.70
20171;DHT22;10245;51.344;6.620;2022-12-08T09:00:56;3.60;93.70
20171;DHT22;10245;51.344;6.620;2022-12-08T09:03:19;3.60;93.60
20171;DHT22;10245;51.344;6.620;2022-12-08T09:05:42;3.60;93.80
20171;DHT22;10245;51.344;6.620;2022-12-08T09:08:06;3.60;93.90
20171;DHT22;10245;51.344;6.620;2022-12-08T09:10:29;3.60;93.30
20171;DHT22;10245;51.344;6.620;2022-12-08T09:12:53;3.60;93.80
20171;DHT22;10245;51.344;6.620;2022-12-08T09:15:18;3.70;94.10
20171;DHT22;10245;51.344;6.620;2022-12-08T09:17:41;3.70;93.80
20171;DHT22;10245;51.344;6.620;2022-12-08T09:20:06;3.60;93.30
20171;DHT22;10245;51.344;6.620;2022-12-08T09:22:29;3.70;93.40
20171;DHT22;10245;51.344;6.620;2022-12-08T09:24:53;3.60;93.50
20171;DHT22;10245;51.344;6.620;2022-12-08T09:27:16;3.70;93.60
20171;DHT22;10245;51.344;6.620;2022-12-08T09:29:40;3.70;93.50
20171;DHT22;10245;51.344;6.620;2022-12-08T09:32:05;3.60;93.50
20171;DHT22;10245;51.344;6.620;2022-12-08T09:34:29;3.60;93.20
20171;DHT22;10245;51.344;6.620;2022-12-08T09:36:53;3.60;93.40
20171;DHT22;10245;51.344;6.620;2022-12-08T09:39:16;3.60;93.10
20171;DHT22;10245;51.344;6.620;2022-12-08T09:41:44;3.60;93.20
20171;DHT22;10245;51.344;6.620;2022-12-08T09:44:33;3.60;93.50
20171;DHT22;10245;51.344;6.620;2022-12-08T09:47:02;3.60;93.50
20171;DHT22;10245;51.344;6.620;2022-12-08T09:49:38;3.60;93.50
20171;DHT22;10245;51.344;6.620;2022-12-08T09:52:17;3.60;93.50
20171;DHT22;10245;51.344;6.620;2022-12-08T09:54:42;3.60;93.60
20171;DHT22;10245;51.344;6.620;2022-12-08T09:57:11;3.60;93.80
20171;DHT22;10245;51.344;6.620;2022-12-08T09:59:38;3.60;93.40
20171;DHT22;10245;51.344;6.620;2022-12-08T10:02:12;3.70;93.50
20171;DHT22;10245;51.344;6.620;2022-12-08T10:04:42;3.60;93.60
20171;DHT22;10245;51.344;6.620;2022-12-08T10:07:12;3.60;93.70
20171;DHT22;10245;51.344;6.620;2022-12-08T10:09:43;3.50;93.70
20171;DHT22;10245;51.344;6.620;2022-12-08T10:12:13;3.60;93.60
20171;DHT22;10245;51.344;6.620;2022-12-08T10:14:42;3.70;93.50
20171;DHT22;10245;51.344;6.620;2022-12-08T10:17:15;3.70;93.80
20171;DHT22;10245;51.344;6.620;2022-12-08T10:19:41;3.70;93.40
20171;DHT22;10245;51.344;6.620;2022-12-08T10:22:14;3.80;93.50
20171;DHT22;10245;51.344;6.620;2022-12-08T10:24:47;3.80;93.60
20171;DHT22;10245;51.344;6.620;2022-12-08T10:27:16;3.80;93.00
20171;DHT22;10245;51.344;6.620;2022-12-08T10:29:39;3.80;92.80
20171;DHT22;10245;51.344;6.620;2022-12-08T10:32:14;3.90;93.20
20171;DHT22;10245;51.344;6.620;2022-12-08T10:34:57;3.90;93.30
20171;DHT22;10245;51.344;6.620;2022-12-08T10:37:21;3.90;92.50
20171;DHT22;10245;51.344;6.620;2022-12-08T10:39:44;4.00;92.60
20171;DHT22;10245;51.344;6.620;2022-12-08T10:42:17;4.00;93.40
20171;DHT22;10245;51.344;6.620;2022-12-08T10:44:53;3.90;93.00
20171;DHT22;10245;51.344;6.620;2022-12-08T10:47:20;4.00;92.40
20171;DHT22;10245;51.344;6.620;2022-12-08T10:49:44;4.00;92.50
20171;DHT22;10245;51.344;6.620;2022-12-08T10:52:13;3.90;92.00
20171;DHT22;10245;51.344;6.620;2022-12-08T10:54:44;4.00;92.50
20171;DHT22;10245;51.344;6.620;2022-12-08T10:57:18;4.00;92.70
20171;DHT22;10245;51.344;6.620;2022-12-08T10:59:43;4.00;92.70
20171;DHT22;10245;51.344;6.620;2022-12-08T11:02:17;4.10;92.80
20171;DHT22;10245;51.344;6.620;2022-12-08T11:04:43;4.00;92.30
20171;DHT22;10245;51.344;6.620;2022-12-08T11:07:08;4.10;93.10
20171;DHT22;10245;51.344;6.620;2022-12-08T11:09:39;4.10;92.50
20171;DHT22;10245;51.344;6.620;2022-12-08T11:12:12;4.00;91.50
20171;DHT22;10245;51.344;6.620;2022-12-08T11:14:46;4.00;92.30
20171;DHT22;10245;51.344;6.620;2022-12-08T11:17:13;4.00;92.10
20171;DHT22;10245;51.344;6.620;2022-12-08T11:19:41;4.00;92.50
20171;DHT22;10245;51.344;6.620;2022-12-08T11:22:20;4.00;91.70
20171;DHT22;10245;51.344;6.620;2022-12-08T11:24:44;4.00;92.30
20171;DHT22;10245;51.344;6.620;2022-12-08T11:27:08;4.00;92.20
20171;DHT22;10245;51.344;6.620;2022-12-08T11:29:33;4.10;92.30
20171;DHT22;10245;51.344;6.620;2022-12-08T11:32:00;4.10;92.00
20171;DHT22;10245;51.344;6.620;2022-12-08T11:34:31;4.10;92.30
20171;DHT22;10245;51.344;6.620;2022-12-08T11:36:58;4.10;91.60
20171;DHT22;10245;51.344;6.620;2022-12-08T11:39:25;4.10;91.70
20171;DHT22;10245;51.344;6.620;2022-12-08T11:41:51;4.10;92.00
20171;DHT22;10245;51.344;6.620;2022-12-08T11:44:23;4.00;90.90
20171;DHT22;10245;51.344;6.620;2022-12-08T11:46:53;4.00;91.10
20171;DHT22;10245;51.344;6.620;2022-12-08T11:49:19;4.00;91.10
20171;DHT22;10245;51.344;6.620;2022-12-08T11:51:47;4.00;91.60
20171;DHT22;10245;51.344;6.620;2022-12-08T11:54:22;4.10;92.10
20171;DHT22;10245;51.344;6.620;2022-12-08T11:56:48;4.10;92.20
20171;DHT22;10245;51.344;6.620;2022-12-08T11:59:18;4.20;92.70
20171;DHT22;10245;51.344;6.620;2022-12-08T12:01:46;4.10;91.90
20171;DHT22;10245;51.344;6.620;2022-12-08T12:04:15;4.10;91.90
20171;DHT22;10245;51.344;6.620;2022-12-08T12:10:20;4.10;91.70
20171;DHT22;10245;51.344;6.620;2022-12-08T12:12:59;4.20;91.60
20171;DHT22;10245;51.344;6.620;2022-12-08T12:15:48;4.10;92.40
20171;DHT22;10245;51.344;6.620;2022-12-08T12:18:24;4.10;91.30
20171;DHT22;10245;51.344;6.620;2022-12-08T12:20:52;4.10;92.00
20171;DHT22;10245;51.344;6.620;2022-12-08T12:23:20;4.10;90.40
20171;DHT22;10245;51.344;6.620;2022-12-08T12:25:50;4.10;90.60
20171;DHT22;10245;51.344;6.620;2022-12-08T12:28:18;4.10;91.30
20171;DHT22;10245;51.344;6.620;2022-12-08T12:30:52;4.20;91.60
20171;DHT22;10245;51.344;6.620;2022-12-08T12:33:21;4.10;91.10
20171;DHT22;10245;51.344;6.620;2022-12-08T12:35:45;4.10;91.30
20171;DHT22;10245;51.344;6.620;2022-12-08T12:38:19;4.00;91.00
20171;DHT22;10245;51.344;6.620;2022-12-08T12:41:06;4.00;91.20
20171;DHT22;10245;51.344;6.620;2022-12-08T12:43:32;4.00;91.20
20171;DHT22;10245;51.344;6.620;2022-12-08T12:46:51;3.60;90.30
20171;DHT22;10245;51.344;6.620;2022-12-08T12:52:39;3.50;90.80
20171;DHT22;10245;51.344;6.620;2022-12-08T12:55:21;3.50;91.50
20171;DHT22;10245;51.344;6.620;2022-12-08T12:57:52;3.50;91.70
20171;DHT22;10245;51.344;6.620;2022-12-08T13:00:18;3.50;91.60
20171;DHT22;10245;51.344;6.620;2022-12-08T13:02:45;3.50;92.10
20171;DHT22;10245;51.344;6.620;2022-12-08T13:05:16;3.60;92.00
20171;DHT22;10245;51.344;6.620;2022-12-08T13:07:46;3.60;92.30
20171;DHT22;10245;51.344;6.620;2022-12-08T13:10:18;3.70;92.60
20171;DHT22;10245;51.344;6.620;2022-12-08T13:12:45;3.70;92.70
20171;DHT22;10245;51.344;6.620;2022-12-08T13:15:25;3.80;93.10
20171;DHT22;10245;51.344;6.620;2022-12-08T13:17:57;3.80;92.30
20171;DHT22;10245;51.344;6.620;2022-12-08T13:20:22;3.90;92.40
20171;DHT22;10245;51.344;6.620;2022-12-08T13:23:11;3.90;92.50
20171;DHT22;10245;51.344;6.620;2022-12-08T13:25:51;3.90;91.70
20171;DHT22;10245;51.344;6.620;2022-12-08T13:28:26;4.00;91.70
20171;DHT22;10245;51.344;6.620;2022-12-08T13:30:51;4.00;91.70
20171;DHT22;10245;51.344;6.620;2022-12-08T13:33:18;4.00;91.90
20171;DHT22;10245;51.344;6.620;2022-12-08T13:36:10;4.00;91.30
20171;DHT22;10245;51.344;6.620;2022-12-08T13:38:38;4.00;90.50
20171;DHT22;10245;51.344;6.620;2022-12-08T13:41:05;4.00;90.70
20171;DHT22;10245;51.344;6.620;2022-12-08T13:43:37;4.00;90.70
20171;DHT22;10245;51.344;6.620;2022-12-08T13:46:31;4.00;91.60
20171;DHT22;10245;51.344;6.620;2022-12-08T13:49:23;4.00;91.10
20171;DHT22;10245;51.344;6.620;2022-12-08T13:52:15;4.00;91.00
20171;DHT22;10245;51.344;6.620;2022-12-08T13:55:00;4.00;90.80
20171;DHT22;10245;51.344;6.620;2022-12-08T13:57:47;4.00;90.70
20171;DHT22;10245;51.344;6.620;2022-12-08T14:00:16;4.00;91.50
20171;DHT22;10245;51.344;6.620;2022-12-08T14:02:42;4.00;91.90
20171;DHT22;10245;51.344;6.620;2022-12-08T14:05:09;4.00;92.20
20171;DHT22;10245;51.344;6.620;2022-12-08T14:07:54;3.90;92.20
20171;DHT22;10245;51.344;6.620;2022-12-08T14:10:20;4.00;92.40
20171;DHT22;10245;51.344;6.620;2022-12-08T14:12:47;4.00;92.50
20171;DHT22;10245;51.344;6.620;2022-12-08T14:15:16;4.00;92.60
20171;DHT22;10245;51.344;6.620;2022-12-08T14:17:50;4.00;92.70
20171;DHT22;10245;51.344;6.620;2022-12-08T14:20:19;4.00;92.70
20171;DHT22;10245;51.344;6.620;2022-12-08T14:22:46;4.10;92.50
20171;DHT22;10245;51.344;6.620;2022-12-08T14:25:14;4.00;92.20
20171;DHT22;10245;51.344;6.620;2022-12-08T14:27:38;4.10;92.60
20171;DHT22;10245;51.344;6.620;2022-12-08T14:30:04;4.10;92.60
20171;DHT22;10245;51.344;6.620;2022-12-08T14:32:31;4.10;92.60
20171;DHT22;10245;51.344;6.620;2022-12-08T14:34:59;4.10;93.10
20171;DHT22;10245;51.344;6.620;2022-12-08T14:37:25;4.00;92.70
20171;DHT22;10245;51.344;6.620;2022-12-08T14:39:50;4.00;92.90
20171;DHT22;10245;51.344;6.620;2022-12-08T14:42:20;4.00;93.20
20171;DHT22;10245;51.344;6.620;2022-12-08T14:44:45;4.00;93.00
20171;DHT22;10245;51.344;6.620;2022-12-08T14:47:09;3.80;93.00
20171;DHT22;10245;51.344;6.620;2022-12-08T14:49:36;4.00;93.40
20171;DHT22;10245;51.344;6.620;2022-12-08T14:52:01;4.00;93.60
20171;DHT22;10245;51.344;6.620;2022-12-08T14:54:24;4.00;93.40
20171;DHT22;10245;51.344;6.620;2022-12-08T14:56:52;4.00;93.30
20171;DHT22;10245;51.344;6.620;2022-12-08T14:59:19;3.90;93.10
20171;DHT22;10245;51.344;6.620;2022-12-08T15:01:45;3.90;93.20
20171;DHT22;10245;51.344;6.620;2022-12-08T15:04:16;3.90;93.00
20171;DHT22;10245;51.344;6.620;2022-12-08T15:06:49;3.90;92.80
20171;DHT22;10245;51.344;6.620;2022-12-08T15:09:16;4.00;93.10
20171;DHT22;10245;51.344;6.620;2022-12-08T15:11:59;3.90;93.50
20171;DHT22;10245;51.344;6.620;2022-12-08T15:14:28;3.90;93.10
20171;DHT22;10245;51.344;6.620;2022-12-08T15:16:53;3.90;93.30
20171;DHT22;10245;51.344;6.620;2022-12-08T15:19:21;3.90;91.60
20171;DHT22;10245;51.344;6.620;2022-12-08T15:21:50;4.00;90.20
20171;DHT22;10245;51.344;6.620;2022-12-08T15:24:14;4.00;90.40
20171;DHT22;10245;51.344;6.620;2022-12-08T15:26:43;4.00;90.60
20171;DHT22;10245;51.344;6.620;2022-12-08T15:29:13;4.00;91.00
20171;DHT22;10245;51.344;6.620;2022-12-08T15:31:41;4.00;91.10
20171;DHT22;10245;51.344;6.620;2022-12-08T15:34:04;4.00;89.80
20171;DHT22;10245;51.344;6.620;2022-12-08T15:36:28;4.10;88.40
20171;DHT22;10245;51.344;6.620;2022-12-08T15:38:52;4.10;87.80
20171;DHT22;10245;51.344;6.620;2022-12-08T15:41:16;4.00;86.90
20171;DHT22;10245;51.344;6.620;2022-12-08T15:43:40;4.00;87.40
20171;DHT22;10245;51.344;6.620;2022-12-08T15:46:03;4.00;88.40
20171;DHT22;10245;51.344;6.620;2022-12-08T15:48:28;4.00;87.90
20171;DHT22;10245;51.344;6.620;2022-12-08T15:50:52;4.00;87.90
20171;DHT22;10245;51.344;6.620;2022-12-08T15:53:16;4.00;87.80
20171;DHT22;10245;51.344;6.620;2022-12-08T15:55:42;4.00;87.00